Time;durP1;ratioP1;P1;durP2;ratioP2;P2;SDS_P1;SDS_P2;PMS_P1;PMS_P2;Temp;Humidity;BMP_temperature;BMP_pressure;BME280_temperature;BME280_humidity;BME280_pressure;Samples;Min_cycle;Max_cycle;Signal;HPM_P1;HPM_P2
2022/06/05 00:00:41;;;;;;;7.27;5.40;;;;;;;26.18;69.71;99519.78;5074856;28;20192;-71
2022/06/05 00:03:20;;;;;;;6.10;5.60;;;;;;;26.05;69.64;99530.63;5074521;28;20242;-71
2022/06/05 00:05:53;;;;;;;6.23;5.10;;;;;;;25.94;70.82;99516.34;5074269;28;20195;-71
2022/06/05 00:08:27;;;;;;;12.30;5.70;;;;;;;25.88;70.90;99516.69;5075420;28;20184;-70
2022/06/05 00:10:56;;;;;;;5.87;5.00;;;;;;;25.86;71.26;99522.44;5074837;28;20267;-71
2022/06/05 00:13:30;;;;;;;6.43;5.90;;;;;;;25.90;70.88;99522.66;5074780;28;20581;-71
2022/06/05 00:15:57;;;;;;;5.60;5.03;;;;;;;25.87;71.33;99520.50;5075433;28;20195;-71
2022/06/05 00:18:25;;;;;;;5.83;5.43;;;;;;;25.92;71.66;99531.34;5074028;28;20668;-71
2022/06/05 00:20:53;;;;;;;9.33;5.80;;;;;;;25.96;71.40;99535.13;5074824;28;20250;-71
2022/06/05 00:23:20;;;;;;;7.13;6.63;;;;;;;26.00;70.93;99528.78;5074092;28;20643;-72
2022/06/05 00:25:54;;;;;;;8.93;6.50;;;;;;;26.00;71.98;99530.72;5073727;28;20203;-71
2022/06/05 00:28:29;;;;;;;6.13;5.73;;;;;;;25.98;72.21;99541.06;5073827;28;20293;-71
2022/06/05 00:31:05;;;;;;;9.77;6.30;;;;;;;25.91;72.18;99532.44;5072497;28;20249;-71
2022/06/05 00:33:37;;;;;;;6.10;5.67;;;;;;;25.89;71.63;99537.38;5072973;28;20663;-71
2022/06/05 00:36:10;;;;;;;6.93;5.27;;;;;;;25.92;71.99;99534.84;5074611;28;20188;-71
2022/06/05 00:38:44;;;;;;;7.27;6.30;;;;;;;25.99;71.45;99538.06;5074696;28;20188;-71
2022/06/05 00:41:30;;;;;;;8.00;6.57;;;;;;;25.99;71.73;99538.06;5074510;28;20180;-71
2022/06/05 00:44:00;;;;;;;7.33;6.67;;;;;;;25.90;72.19;99533.53;5074346;28;20245;-70
2022/06/05 00:46:28;;;;;;;7.13;6.50;;;;;;;25.83;72.01;99527.63;5074673;28;20207;-71
2022/06/05 00:48:56;;;;;;;6.00;5.43;;;;;;;25.84;72.42;99529.28;5073840;28;20250;-72
2022/06/05 00:51:23;;;;;;;5.83;5.37;;;;;;;25.86;72.25;99527.88;5074303;28;20223;-72
2022/06/05 00:53:51;;;;;;;6.50;5.90;;;;;;;25.94;71.39;99540.03;5073583;28;20245;-71
2022/06/05 00:56:18;;;;;;;6.90;5.53;;;;;;;25.93;71.41;99530.22;5073901;28;20245;-71
2022/06/05 00:58:46;;;;;;;7.60;5.77;;;;;;;25.96;70.41;99524.25;5073532;28;20196;-71
2022/06/05 01:01:13;;;;;;;5.40;4.93;;;;;;;25.97;71.35;99523.13;5074313;28;20191;-71
2022/06/05 01:03:40;;;;;;;6.90;6.30;;;;;;;25.97;70.85;99518.47;5073195;28;20200;-71
2022/06/05 01:06:08;;;;;;;6.87;6.27;;;;;;;25.98;69.88;99530.19;5073659;28;20187;-71
2022/06/05 01:08:35;;;;;;;5.87;5.33;;;;;;;25.90;70.43;99520.75;5072920;28;20262;-71
2022/06/05 01:11:13;;;;;;;7.53;6.10;;;;;;;25.66;70.18;99527.34;5072953;28;20253;-72
2022/06/05 01:13:52;;;;;;;9.03;6.07;;;;;;;25.42;71.62;99523.84;5073765;28;20194;-70
2022/06/05 01:16:27;;;;;;;8.53;6.43;;;;;;;25.16;72.86;99517.09;5073196;28;20245;-71
2022/06/05 01:19:07;;;;;;;5.83;5.20;;;;;;;25.06;74.38;99522.66;5073147;28;20717;-71
2022/06/05 01:22:15;;;;;;;6.33;5.73;;;;;;;25.21;73.23;99530.63;5073588;28;20188;-71
2022/06/05 01:25:00;;;;;;;9.23;6.03;;;;;;;25.15;74.03;99518.19;5073039;28;20200;-71
2022/06/05 01:27:31;;;;;;;6.70;5.60;;;;;;;25.23;73.77;99523.00;5073624;28;20211;-71
2022/06/05 01:30:04;;;;;;;6.10;5.50;;;;;;;25.33;72.84;99520.16;5072941;28;20275;-71
2022/06/05 01:32:37;;;;;;;5.80;5.30;;;;;;;25.46;72.38;99524.88;5073590;28;20188;-71
2022/06/05 01:35:14;;;;;;;6.37;5.30;;;;;;;25.58;72.35;99530.72;5073514;28;20184;-71
2022/06/05 01:37:47;;;;;;;5.33;4.93;;;;;;;25.74;71.03;99540.28;5072497;28;20188;-71
2022/06/05 01:40:19;;;;;;;5.97;5.47;;;;;;;25.84;70.69;99542.91;5072581;28;20225;-71
2022/06/05 01:42:51;;;;;;;5.67;5.10;;;;;;;25.90;70.54;99542.53;5073586;28;20222;-71
2022/06/05 01:45:24;;;;;;;9.30;5.90;;;;;;;25.96;70.56;99554.19;5073107;28;20181;-71
2022/06/05 01:47:54;;;;;;;6.27;5.77;;;;;;;26.01;69.79;99551.38;5072333;28;20686;-70
2022/06/05 01:50:26;;;;;;;6.33;5.83;;;;;;;25.85;70.71;99544.50;5072546;28;20661;-71
2022/06/05 01:52:57;;;;;;;7.57;6.50;;;;;;;25.70;72.14;99544.69;5072566;28;20245;-71
2022/06/05 01:55:29;;;;;;;7.47;5.97;;;;;;;25.66;71.79;99543.66;5072565;28;20184;-69
2022/06/05 01:58:00;;;;;;;7.13;6.33;;;;;;;25.71;71.54;99549.84;5073059;28;20235;-69
2022/06/05 02:00:27;;;;;;;6.00;5.63;;;;;;;25.73;71.51;99541.41;5072479;28;20192;-69
2022/06/05 02:03:02;;;;;;;6.43;5.93;;;;;;;25.77;71.35;99542.44;5072162;28;20619;-69
2022/06/05 02:05:34;;;;;;;11.13;7.30;;;;;;;25.68;70.75;99545.00;5072161;28;20704;-69
2022/06/05 02:08:09;;;;;;;7.17;6.53;;;;;;;25.45;71.88;99539.59;5072305;28;20211;-70
2022/06/05 02:10:43;;;;;;;9.20;6.73;;;;;;;25.21;72.93;99536.06;5072687;28;20249;-71
2022/06/05 02:13:11;;;;;;;6.60;6.13;;;;;;;25.08;73.77;99531.31;5072337;28;20540;-71
2022/06/05 02:15:38;;;;;;;7.23;6.63;;;;;;;24.92;73.78;99526.03;5073165;28;20195;-71
2022/06/05 02:18:05;;;;;;;7.23;6.40;;;;;;;24.83;73.22;99541.38;5072745;28;20264;-71
2022/06/05 02:20:32;;;;;;;6.60;6.10;;;;;;;24.71;73.38;99543.66;5071622;28;20192;-71
2022/06/05 02:23:00;;;;;;;7.50;6.83;;;;;;;24.65;74.23;99544.00;5072319;28;20257;-70
2022/06/05 02:25:28;;;;;;;8.30;6.97;;;;;;;24.65;73.29;99542.09;5071869;28;20686;-71
2022/06/05 02:27:58;;;;;;;7.03;6.40;;;;;;;24.54;74.29;99537.81;5071947;28;20603;-71
2022/06/05 02:30:37;;;;;;;6.87;6.43;;;;;;;24.61;75.42;99545.66;5073431;28;20230;-71
2022/06/05 02:33:11;;;;;;;7.43;6.77;;;;;;;24.58;74.33;99533.44;5072030;28;20666;-70
2022/06/05 02:35:46;;;;;;;7.70;6.60;;;;;;;24.57;74.88;99531.00;5072448;28;20237;-70
2022/06/05 02:38:23;;;;;;;7.80;6.57;;;;;;;24.56;75.65;99522.06;5072083;28;20199;-71
2022/06/05 02:40:59;;;;;;;7.60;6.90;;;;;;;24.39;75.31;99518.94;5072212;28;20263;-71
2022/06/05 02:43:34;;;;;;;7.67;6.60;;;;;;;24.15;76.21;99512.63;5072606;28;20187;-71
2022/06/05 02:46:11;;;;;;;7.70;7.07;;;;;;;23.93;76.90;99512.25;5073021;28;20190;-71
2022/06/05 02:48:42;;;;;;;9.73;6.63;;;;;;;23.83;78.36;99530.47;5071767;28;20211;-69
2022/06/05 02:51:15;;;;;;;8.80;7.93;;;;;;;23.85;77.97;99534.50;5072237;28;20590;-71
2022/06/05 02:53:46;;;;;;;7.83;7.13;;;;;;;23.74;78.00;99543.81;5072509;28;20190;-71
2022/06/05 02:56:13;;;;;;;8.17;7.30;;;;;;;23.63;78.25;99539.53;5071806;28;20733;-71
2022/06/05 02:58:40;;;;;;;8.57;7.53;;;;;;;23.53;79.21;99547.72;5072061;28;20202;-72
2022/06/05 03:03:52;;;;;;;7.37;6.87;;;;;;;23.78;79.91;99544.88;5072508;28;20557;-71
2022/06/05 03:06:19;;;;;;;7.17;6.53;;;;;;;24.00;78.89;99553.44;5071824;28;20244;-71
2022/06/05 03:08:46;;;;;;;7.53;6.90;;;;;;;24.28;76.93;99550.00;5071224;28;20223;-71
2022/06/05 03:11:13;;;;;;;8.63;7.93;;;;;;;24.36;76.06;99552.09;5071257;28;20732;-70
2022/06/05 03:13:40;;;;;;;8.00;7.30;;;;;;;24.36;76.86;99554.81;5071734;28;20202;-71
2022/06/05 03:16:08;;;;;;;8.50;7.43;;;;;;;24.34;76.62;99543.41;5071168;28;20723;-71
2022/06/05 03:18:35;;;;;;;9.13;8.30;;;;;;;24.21;76.90;99527.78;5071158;28;20286;-71
2022/06/05 03:21:02;;;;;;;8.63;7.40;;;;;;;24.20;77.28;99531.59;5072511;28;20237;-71
2022/06/05 03:23:28;;;;;;;8.10;7.40;;;;;;;24.31;76.00;99544.00;5071293;28;20654;-71
2022/06/05 03:25:55;;;;;;;9.43;8.03;;;;;;;24.26;76.15;99552.16;5071563;28;20200;-71
2022/06/05 03:28:22;;;;;;;8.10;7.50;;;;;;;24.18;75.43;99544.63;5072397;28;20234;-70
2022/06/05 03:30:49;;;;;;;8.33;7.60;;;;;;;24.05;75.69;99556.13;5072641;28;20195;-70
2022/06/05 03:33:18;;;;;;;8.13;7.30;;;;;;;24.00;75.93;99553.44;5074936;28;20628;-70
2022/06/05 03:35:46;;;;;;;7.67;6.97;;;;;;;24.10;76.64;99547.94;5075408;28;20281;-70
2022/06/05 03:38:15;;;;;;;9.03;7.10;;;;;;;24.09;75.34;99545.53;5075217;28;20256;-71
2022/06/05 03:40:42;;;;;;;10.20;7.20;;;;;;;24.14;76.27;99546.28;5074736;28;20198;-71
2022/06/05 03:43:09;;;;;;;8.57;7.87;;;;;;;24.34;74.41;99542.63;5075277;28;20195;-71
2022/06/05 03:45:36;;;;;;;6.93;6.43;;;;;;;24.62;74.26;99539.94;5075513;28;20257;-71
2022/06/05 03:48:04;;;;;;;8.70;7.67;;;;;;;24.85;72.84;99536.47;5074665;28;20706;-71
2022/06/05 03:50:32;;;;;;;8.00;7.30;;;;;;;24.93;72.28;99535.84;5074979;28;20231;-71
2022/06/05 03:52:59;;;;;;;10.67;7.13;;;;;;;24.98;72.23;99531.44;5074719;28;20194;-70
2022/06/05 03:55:26;;;;;;;7.93;7.40;;;;;;;25.00;72.05;99530.06;5074779;28;20614;-70
2022/06/05 03:57:53;;;;;;;7.13;6.53;;;;;;;25.02;72.20;99528.66;5074635;28;20768;-70
2022/06/05 04:00:22;;;;;;;7.47;6.73;;;;;;;25.02;71.79;99520.50;5074394;28;20245;-70
2022/06/05 04:02:50;;;;;;;7.60;6.63;;;;;;;25.07;71.84;99529.72;5075138;28;20199;-70
2022/06/05 04:05:20;;;;;;;7.17;6.47;;;;;;;25.13;71.61;99523.09;5074910;28;20242;-70
2022/06/05 04:07:49;;;;;;;11.53;6.37;;;;;;;25.14;71.60;99513.88;5074992;28;20620;-70
2022/06/05 04:10:17;;;;;;;7.63;7.03;;;;;;;25.23;71.12;99512.13;5074503;28;20194;-70
2022/06/05 04:12:44;;;;;;;7.43;6.70;;;;;;;25.25;70.40;99504.47;5074152;28;20191;-70
2022/06/05 04:15:12;;;;;;;7.30;6.70;;;;;;;25.39;71.11;99510.84;5074187;28;20286;-70
2022/06/05 04:17:39;;;;;;;8.33;6.90;;;;;;;25.40;69.26;99523.34;5074167;28;20200;-71
2022/06/05 04:20:07;;;;;;;6.93;6.40;;;;;;;25.54;70.24;99529.69;5074600;28;20199;-71
2022/06/05 04:22:35;;;;;;;10.73;5.93;;;;;;;25.75;68.95;99531.03;5074164;28;20188;-71
2022/06/05 04:25:03;;;;;;;6.20;5.60;;;;;;;25.98;67.78;99536.44;5074232;28;20204;-71
2022/06/05 04:27:30;;;;;;;7.20;6.13;;;;;;;26.16;67.41;99526.63;5074765;28;20277;-71
2022/06/05 04:29:59;;;;;;;7.40;6.07;;;;;;;26.31;66.49;99535.38;5073944;28;20246;-71
2022/06/05 04:32:26;;;;;;;9.07;6.97;;;;;;;26.43;65.89;99532.19;5073784;28;20550;-71
2022/06/05 04:34:53;;;;;;;7.10;6.50;;;;;;;26.54;65.33;99522.72;5074508;28;20196;-71
2022/06/05 04:37:21;;;;;;;8.50;6.33;;;;;;;26.70;64.65;99529.56;5073671;28;20680;-71
2022/06/05 04:39:48;;;;;;;8.87;5.73;;;;;;;26.80;64.73;99521.19;5074112;28;20192;-70
2022/06/05 04:42:36;;;;;;;6.40;5.87;;;;;;;26.90;64.29;99518.28;5073291;28;20276;-73
2022/06/05 04:45:04;;;;;;;7.30;6.67;;;;;;;27.06;63.79;99517.66;5074155;28;20188;-70
2022/06/05 04:47:33;;;;;;;7.17;6.57;;;;;;;27.15;63.59;99518.56;5073455;28;20188;-72
2022/06/05 04:50:00;;;;;;;8.97;6.53;;;;;;;27.42;62.39;99524.06;5073534;28;20322;-73
2022/06/05 04:52:27;;;;;;;7.00;6.37;;;;;;;28.40;59.62;99531.38;5073973;28;20241;-72
2022/06/05 04:54:54;;;;;;;10.60;6.10;;;;;;;29.38;56.11;99539.16;5073574;28;20191;-72
2022/06/05 04:57:22;;;;;;;6.97;6.43;;;;;;;30.05;53.37;99543.13;5073969;28;20192;-71
2022/06/05 04:59:49;;;;;;;6.93;6.23;;;;;;;30.64;51.25;99525.03;5073321;28;20196;-69
2022/06/05 05:02:17;;;;;;;5.83;5.43;;;;;;;31.09;50.15;99535.25;5073253;28;20694;-70
2022/06/05 05:04:47;;;;;;;6.67;6.13;;;;;;;31.47;48.05;99530.56;5073495;28;20577;-72
2022/06/05 05:07:16;;;;;;;6.47;5.63;;;;;;;31.93;46.78;99526.91;5073033;28;20734;-71
2022/06/05 05:09:42;;;;;;;5.70;5.27;;;;;;;32.15;46.10;99532.84;5073161;28;20306;-71
2022/06/05 05:12:10;;;;;;;6.70;6.10;;;;;;;32.32;45.64;99535.47;5072969;28;20721;-71
2022/06/05 05:14:39;;;;;;;6.67;6.07;;;;;;;32.32;45.11;99535.47;5073328;28;20286;-70
2022/06/05 05:17:06;;;;;;;6.10;5.57;;;;;;;32.45;44.51;99534.38;5073263;28;20274;-71
2022/06/05 05:19:33;;;;;;;8.03;6.13;;;;;;;32.54;44.70;99526.81;5073024;28;20199;-71
2022/06/05 05:22:00;;;;;;;6.00;5.50;;;;;;;32.86;43.26;99522.44;5072839;28;20192;-72
2022/06/05 05:24:27;;;;;;;6.87;5.60;;;;;;;33.13;42.67;99519.88;5072830;28;20258;-72
2022/06/05 05:26:53;;;;;;;6.63;5.20;;;;;;;33.25;42.56;99511.59;5073011;28;20196;-64
2022/06/05 05:29:20;;;;;;;5.53;5.03;;;;;;;33.30;42.40;99502.28;5073351;28;20231;-67
2022/06/05 05:31:52;;;;;;;7.40;5.40;;;;;;;33.49;41.93;99507.25;5072434;28;20226;-66
2022/06/05 05:34:18;;;;;;;6.03;5.53;;;;;;;33.72;41.10;99505.59;5072938;28;20638;-67
2022/06/05 05:36:45;;;;;;;14.80;5.60;;;;;;;33.35;41.74;99507.59;5072803;28;20192;-66
2022/06/05 05:42:16;;;;;;;5.70;5.20;;;;;;;33.61;41.06;99504.47;5030459;28;20235;-66
2022/06/05 05:44:48;;;;;;;5.50;4.90;;;;;;;33.50;41.23;99509.66;5030718;28;20248;-66
2022/06/05 05:47:18;;;;;;;7.43;5.13;;;;;;;33.18;42.47;99502.28;5050177;28;20686;-65
2022/06/05 05:49:51;;;;;;;7.33;5.00;;;;;;;33.00;42.61;99509.19;5072376;28;20269;-65
2022/06/05 05:52:17;;;;;;;6.10;5.37;;;;;;;32.75;43.80;99508.31;5073223;28;20233;-64
2022/06/05 05:54:56;;;;;;;6.17;5.33;;;;;;;32.78;43.78;99504.88;5072349;28;20663;-65
2022/06/05 05:57:24;;;;;;;6.30;5.90;;;;;;;32.92;43.19;99499.88;5073149;28;20191;-64
2022/06/05 05:59:51;;;;;;;8.57;5.50;;;;;;;32.85;43.40;99505.16;5072278;28;20721;-62
2022/06/05 06:02:21;;;;;;;5.70;5.20;;;;;;;32.82;42.91;99507.78;5069454;28;20535;-62
2022/06/05 06:04:50;;;;;;;10.57;6.30;;;;;;;32.97;43.12;99507.09;5061573;28;20565;-63
2022/06/05 06:07:17;;;;;;;6.47;5.10;;;;;;;33.16;43.16;99502.63;5065529;28;20200;-62
2022/06/05 06:09:44;;;;;;;5.87;5.47;;;;;;;33.33;42.48;99498.06;5071951;28;20285;-62
2022/06/05 06:12:12;;;;;;;9.70;5.80;;;;;;;33.65;41.66;99505.38;5053351;28;20193;-62
2022/06/05 06:14:39;;;;;;;8.67;5.80;;;;;;;33.90;40.50;99501.44;5052515;28;20262;-63
2022/06/05 06:17:06;;;;;;;6.03;5.53;;;;;;;33.97;40.23;99501.66;5052162;28;20586;-62
2022/06/05 06:19:34;;;;;;;5.40;4.90;;;;;;;33.98;39.27;99509.59;5060990;28;20220;-62
2022/06/05 06:22:00;;;;;;;7.97;5.00;;;;;;;34.06;38.64;99508.66;5072106;28;20188;-62
2022/06/05 06:24:27;;;;;;;5.93;5.30;;;;;;;33.95;39.69;99504.75;5071765;28;20192;-62
2022/06/05 06:26:54;;;;;;;6.55;5.65;;;;;;;34.06;39.31;99503.13;5082209;28;20206;-62
2022/06/05 06:29:24;;;;;;;5.82;5.25;;;;;;;33.87;39.64;99493.88;5090770;28;20219;-64
2022/06/05 06:31:50;;;;;;;5.75;5.25;;;;;;;34.07;40.15;99490.94;5088619;28;20203;-63
2022/06/05 06:34:18;;;;;;;6.38;5.78;;;;;;;34.17;39.49;99484.13;5090572;28;20187;-64
2022/06/05 06:36:46;;;;;;;11.40;5.53;;;;;;;34.24;39.23;99484.28;5079181;28;20192;-62
2022/06/05 06:39:13;;;;;;;5.97;5.43;;;;;;;34.24;39.29;99479.59;5071393;28;20249;-63
2022/06/05 06:41:44;;;;;;;5.95;5.53;;;;;;;34.33;39.02;99482.25;5066365;28;20196;-67
2022/06/05 06:44:11;;;;;;;6.95;5.75;;;;;;;34.34;39.32;99481.88;5067588;28;20600;-62
2022/06/05 06:46:37;;;;;;;6.68;6.07;;;;;;;34.43;38.99;99482.53;5070545;28;20199;-64
2022/06/05 06:49:05;;;;;;;6.15;5.70;;;;;;;34.60;39.18;99473.91;5070822;28;20211;-62
2022/06/05 06:51:32;;;;;;;9.68;5.45;;;;;;;34.78;38.93;99480.69;5071563;28;20235;-62
2022/06/05 06:54:00;;;;;;;8.77;5.57;;;;;;;34.70;38.32;99481.66;5071534;28;20191;-63
2022/06/05 06:56:28;;;;;;;6.60;6.03;;;;;;;34.58;38.83;99469.91;5071462;28;20249;-61
2022/06/05 06:58:56;;;;;;;5.43;5.00;;;;;;;34.76;38.21;99465.63;5070999;28;20667;-61
2022/06/05 07:01:24;;;;;;;8.55;5.38;;;;;;;34.77;38.62;99464.47;5066552;28;20188;-62
2022/06/05 07:03:55;;;;;;;6.43;5.63;;;;;;;34.96;38.15;99467.34;5070367;28;20192;-68
2022/06/05 07:06:21;;;;;;;6.30;5.53;;;;;;;34.32;38.43;99458.53;5072932;28;20646;-67
2022/06/05 07:08:50;;;;;;;6.22;5.50;;;;;;;34.39;38.72;99464.25;5074967;28;20270;-66
2022/06/05 07:11:19;;;;;;;10.38;5.43;;;;;;;33.87;39.69;99458.03;5074785;28;20187;-67
2022/06/05 07:13:46;;;;;;;6.60;5.18;;;;;;;33.68;40.32;99455.09;5074847;28;20202;-66
2022/06/05 07:16:13;;;;;;;9.35;5.60;;;;;;;33.47;40.81;99459.97;5075461;28;20196;-67
2022/06/05 07:18:40;;;;;;;5.78;5.28;;;;;;;33.39;41.50;99449.88;5072620;28;20563;-67
2022/06/05 07:21:08;;;;;;;8.30;5.78;;;;;;;33.80;41.08;99447.56;5073952;28;20257;-67
2022/06/05 07:23:35;;;;;;;8.20;5.82;;;;;;;33.97;40.39;99446.53;5074275;28;20282;-67
2022/06/05 07:26:02;;;;;;;5.95;5.43;;;;;;;33.58;41.30;99447.28;5074429;28;20207;-66
2022/06/05 07:28:30;;;;;;;13.05;5.80;;;;;;;33.68;41.22;99444.06;5073904;28;20710;-67
2022/06/05 07:30:56;;;;;;;10.45;5.72;;;;;;;34.19;40.12;99443.19;5074305;28;20218;-66
2022/06/05 07:33:23;;;;;;;8.65;5.25;;;;;;;34.25;39.92;99444.56;5074904;28;20245;-67
2022/06/05 07:35:56;;;;;;;5.68;5.20;;;;;;;34.16;39.82;99441.16;5074425;28;20555;-66
2022/06/05 07:38:23;;;;;;;7.38;5.45;;;;;;;34.46;39.03;99432.13;5075151;28;20246;-67
2022/06/05 07:40:50;;;;;;;6.40;5.75;;;;;;;34.48;38.90;99431.78;5074618;28;20721;-66
2022/06/05 07:43:16;;;;;;;7.50;5.32;;;;;;;34.48;38.41;99434.53;5074624;28;20191;-67
2022/06/05 07:45:45;;;;;;;6.82;5.22;;;;;;;34.32;38.71;99430.97;5074859;28;20199;-67
2022/06/05 07:48:12;;;;;;;10.20;5.00;;;;;;;34.63;38.08;99425.47;5074797;28;20198;-66
2022/06/05 07:54:26;;;;;;;5.10;4.70;;;;;;;34.76;38.30;99435.25;5074607;28;20296;-66
2022/06/05 07:56:10;;;;;;;6.75;5.45;;;;;;;34.91;38.33;99427.00;5054366;28;20199;-66
2022/06/05 07:58:37;;;;;;;8.93;5.38;;;;;;;35.23;37.53;99433.28;5054822;28;20247;-66
2022/06/05 08:01:07;;;;;;;5.40;5.00;;;;;;;34.95;38.19;99432.63;5053711;28;20248;-67
2022/06/05 08:03:34;;;;;;;5.72;5.25;;;;;;;34.80;38.24;99423.19;5053504;28;20192;-66
2022/06/05 08:06:01;;;;;;;13.88;5.60;;;;;;;34.82;38.45;99425.59;5053958;28;20193;-66
2022/06/05 08:08:27;;;;;;;5.93;5.43;;;;;;;34.87;37.89;99431.63;5055970;28;20718;-67
2022/06/05 08:10:55;;;;;;;7.10;5.05;;;;;;;34.95;38.08;99433.41;5073721;28;20245;-66
2022/06/05 08:13:23;;;;;;;6.10;5.50;;;;;;;35.23;37.84;99431.31;5073584;28;20237;-68
2022/06/05 08:15:50;;;;;;;8.15;5.13;;;;;;;35.33;38.08;99419.75;5073785;28;20652;-68
2022/06/05 08:18:18;;;;;;;8.40;5.50;;;;;;;35.73;37.55;99422.19;5072358;28;20254;-68
2022/06/05 08:20:44;;;;;;;5.40;4.85;;;;;;;35.72;37.09;99424.13;5073491;28;20245;-67
2022/06/05 08:23:11;;;;;;;11.77;5.47;;;;;;;35.00;37.82;99413.81;5073463;28;20192;-66
2022/06/05 08:25:38;;;;;;;5.75;5.22;;;;;;;34.93;38.12;99410.06;5072971;28;20203;-67
2022/06/05 08:28:05;;;;;;;10.77;5.45;;;;;;;35.13;38.23;99411.72;5072828;28;20254;-66
2022/06/05 08:30:32;;;;;;;7.93;5.18;;;;;;;34.91;38.68;99404.91;5072944;28;20227;-67
2022/06/05 08:32:59;;;;;;;7.68;5.30;;;;;;;34.87;38.37;99406.00;5073227;28;20200;-66
2022/06/05 08:35:27;;;;;;;10.55;5.70;;;;;;;34.87;39.33;99404.00;5073273;28;20188;-67
2022/06/05 08:43:44;;;;;;;8.27;5.10;;;;;;;35.70;37.35;99407.13;5072480;28;20179;-68
2022/06/05 08:46:12;;;;;;;7.90;5.68;;;;;;;35.59;37.87;99408.03;5072509;28;20265;-67
2022/06/05 08:48:44;;;;;;;6.38;5.22;;;;;;;36.01;37.14;99404.19;5073076;28;20222;-66
2022/06/05 08:51:24;;;;;;;6.22;5.43;;;;;;;36.12;36.67;99407.16;5072900;28;20227;-66
2022/06/05 08:53:55;;;;;;;14.50;7.43;;;;;;;35.48;37.60;99396.75;5073350;28;20238;-66
2022/06/05 08:56:31;;;;;;;5.95;5.38;;;;;;;35.28;37.95;99391.59;5072667;28;20271;-67
2022/06/05 08:59:02;;;;;;;7.47;5.22;;;;;;;35.62;37.30;99401.78;5072702;28;20307;-67
2022/06/05 09:01:36;;;;;;;15.10;6.00;;;;;;;35.82;36.17;99392.38;5072127;28;20245;-66
2022/06/05 09:04:19;;;;;;;8.25;5.30;;;;;;;36.07;36.35;99396.41;5072138;28;20184;-67
2022/06/05 09:06:51;;;;;;;5.32;4.88;;;;;;;36.30;35.07;99389.75;5072495;28;20245;-67
2022/06/05 09:09:21;;;;;;;6.82;5.05;;;;;;;36.25;35.82;99401.13;5072554;28;20212;-67
2022/06/05 09:11:52;;;;;;;7.53;5.30;;;;;;;36.67;35.14;99390.00;5072695;28;20184;-66
2022/06/05 09:14:30;;;;;;;5.18;4.78;;;;;;;36.84;34.14;99393.09;5072815;28;20249;-67
2022/06/05 09:17:04;;;;;;;8.20;5.00;;;;;;;36.99;34.17;99388.56;5072363;28;20263;-67
2022/06/05 09:19:31;;;;;;;8.93;4.82;;;;;;;36.95;33.12;99396.03;5072525;28;20192;-66
2022/06/05 09:22:06;;;;;;;5.47;4.97;;;;;;;36.00;34.71;99385.19;5072861;28;20224;-67
2022/06/05 09:24:44;;;;;;;5.03;4.60;;;;;;;36.00;34.51;99382.44;5072273;28;20188;-67
2022/06/05 09:27:20;;;;;;;5.70;5.13;;;;;;;36.23;33.79;99383.31;5073074;28;20249;-67
2022/06/05 09:29:52;;;;;;;7.55;5.25;;;;;;;36.59;33.76;99372.47;5072292;28;20207;-67
2022/06/05 09:33:00;;;;;;;7.18;5.28;;;;;;;36.17;33.33;99365.38;5071666;28;20185;-67
2022/06/05 09:35:33;;;;;;;5.18;4.65;;;;;;;36.26;33.33;99355.69;5068213;28;20205;-67
2022/06/05 09:38:07;;;;;;;10.60;4.72;;;;;;;36.64;32.46;99365.81;5072364;28;20249;-67
2022/06/05 09:40:36;;;;;;;10.25;4.22;;;;;;;36.68;31.00;99366.72;5071899;28;20184;-67
2022/06/05 09:43:43;;;;;;;11.00;5.18;;;;;;;36.45;31.28;99369.47;5071783;28;20200;-67
2022/06/05 09:46:26;;;;;;;5.55;4.43;;;;;;;36.94;30.63;99363.94;5010118;28;20623;-67
2022/06/05 09:48:57;;;;;;;6.43;4.60;;;;;;;37.15;29.56;99353.22;5064763;28;20652;-67
2022/06/05 09:51:24;;;;;;;5.05;4.60;;;;;;;37.45;28.80;99351.22;5072405;28;20223;-67
2022/06/05 09:53:59;;;;;;;3.75;3.55;;;;;;;37.34;27.49;99349.50;5072119;28;20254;-66
2022/06/05 09:58:24;;;;;;;6.30;4.00;;;;;;;36.82;29.36;99350.31;5071315;28;20187;-67
2022/06/05 09:59:29;;;;;;;4.90;4.20;;;;;;;36.59;29.44;99325.38;5071352;28;20219;-67
2022/06/05 10:01:59;;;;;;;5.53;4.10;;;;;;;36.69;30.22;99338.66;5071760;28;20281;-67
2022/06/05 10:04:29;;;;;;;6.50;4.10;;;;;;;36.92;29.20;99333.88;5071355;28;20192;-68
2022/06/05 10:07:03;;;;;;;9.55;3.75;;;;;;;36.59;29.43;99335.69;5071615;28;20651;-67
2022/06/05 10:09:33;;;;;;;15.23;4.13;;;;;;;36.37;29.99;99331.75;5071181;28;20207;-67
2022/06/05 10:12:04;;;;;;;8.02;4.32;;;;;;;36.49;29.85;99325.22;5071394;28;20246;-67
2022/06/05 10:14:47;;;;;;;10.73;4.53;;;;;;;37.06;28.96;99327.69;5071592;28;20660;-67
2022/06/05 10:17:40;;;;;;;5.80;4.40;;;;;;;37.25;28.82;99313.75;5071408;28;20216;-67
2022/06/05 10:20:25;;;;;;;5.70;4.22;;;;;;;37.51;28.55;99321.19;5068255;28;20200;-67
2022/06/05 10:22:58;;;;;;;3.90;3.70;;;;;;;37.01;28.77;99311.41;5071810;28;20641;-67
2022/06/05 10:25:33;;;;;;;8.13;3.60;;;;;;;36.53;28.73;99309.47;5071951;28;20188;-67
2022/06/05 10:28:03;;;;;;;4.63;3.65;;;;;;;36.39;28.42;99304.53;5071800;28;20194;-66
2022/06/05 10:30:33;;;;;;;6.82;3.88;;;;;;;36.44;28.04;99312.53;5071645;28;20600;-66
2022/06/05 10:33:07;;;;;;;6.75;5.80;;;;;;;36.43;28.18;99294.31;5071838;28;20278;-67
2022/06/05 10:35:46;;;;;;;4.40;4.10;;;;;;;37.03;28.44;99300.78;5071718;28;20714;-67
2022/06/05 10:38:28;;;;;;;4.72;4.32;;;;;;;37.39;27.79;99302.81;5072018;28;20620;-67
2022/06/05 10:41:03;;;;;;;4.38;3.50;;;;;;;37.52;27.62;99304.19;5073152;28;20183;-67
2022/06/05 10:43:32;;;;;;;6.43;3.80;;;;;;;37.43;27.62;99292.56;5075934;28;20233;-67
2022/06/05 10:49:49;;;;;;;5.00;3.40;;;;;;;37.18;27.63;99283.97;5073509;28;20289;-69
2022/06/05 10:52:41;;;;;;;6.55;3.67;;;;;;;36.87;27.41;99283.53;5035022;28;20196;-70
2022/06/05 10:59:14;;;;;;;4.20;3.58;;;;;;;36.73;27.90;99272.22;5034613;28;20197;-68
2022/06/05 11:02:28;;;;;;;6.40;3.28;;;;;;;36.76;27.45;99257.66;5035468;28;20673;-68
2022/06/05 11:05:40;;;;;;;7.60;4.05;;;;;;;36.78;27.58;99239.47;4980206;28;20203;-67
2022/06/05 11:08:36;;;;;;;3.70;3.40;;;;;;;37.05;27.50;99259.63;5029233;28;20255;-67
2022/06/05 11:14:46;;;;;;;;;;;;;;;;;;;;;
2022/06/05 11:17:33;;;;;;;3.80;3.50;;;;;;;35.99;27.31;99239.78;5035150;28;20205;-68
2022/06/05 11:20:12;;;;;;;3.70;3.40;;;;;;;36.26;27.65;99258.06;5035441;28;20190;-68
2022/06/05 11:22:47;;;;;;;6.13;3.40;;;;;;;35.94;28.73;99267.75;5035446;28;20208;-66
2022/06/05 11:25:23;;;;;;;12.18;4.07;;;;;;;36.08;28.57;99238.38;5034701;28;20192;-67
2022/06/05 11:27:59;;;;;;;5.55;4.30;;;;;;;36.01;28.23;99243.00;5034252;28;20193;-66
2022/06/05 11:30:39;;;;;;;5.03;3.80;;;;;;;36.20;27.11;99262.25;5034095;28;20703;-66
2022/06/05 11:33:13;;;;;;;3.30;3.00;;;;;;;36.23;27.26;99256.03;5034714;28;20194;-66
2022/06/05 11:35:54;;;;;;;5.05;3.28;;;;;;;36.22;27.72;99254.44;5035064;28;20288;-66
2022/06/05 11:38:32;;;;;;;4.03;3.28;;;;;;;36.45;27.93;99252.41;5030034;28;20665;-66
2022/06/05 11:41:05;;;;;;;4.65;3.53;;;;;;;36.73;27.93;99252.84;5033655;28;20196;-65
2022/06/05 11:43:34;;;;;;;3.67;3.47;;;;;;;36.91;27.23;99245.59;5033834;28;20637;-66
2022/06/05 11:46:16;;;;;;;5.60;3.85;;;;;;;36.99;26.56;99244.50;5034095;28;20243;-67
2022/06/05 11:48:47;;;;;;;5.82;3.35;;;;;;;36.55;27.81;99246.25;5034558;28;20244;-66
2022/06/05 11:51:22;;;;;;;4.32;3.97;;;;;;;36.48;27.78;99246.13;5058451;28;20246;-68
2022/06/05 11:54:00;;;;;;;3.45;3.25;;;;;;;36.57;28.00;99244.69;5073622;28;20199;-66
2022/06/05 11:56:42;;;;;;;4.80;3.17;;;;;;;36.13;28.10;99240.03;5072685;28;20187;-67
2022/06/05 11:59:21;;;;;;;5.05;3.33;;;;;;;36.37;27.93;99242.41;5073649;28;20644;-65
2022/06/05 12:01:54;;;;;;;7.85;3.92;;;;;;;36.11;27.84;99247.88;5074496;28;20250;-64
2022/06/05 12:04:33;;;;;;;3.75;3.20;;;;;;;36.24;27.43;99235.47;5073697;28;20550;-64
2022/06/05 12:07:03;;;;;;;4.47;3.42;;;;;;;36.46;27.66;99237.41;5073529;28;20675;-64
2022/06/05 12:09:43;;;;;;;7.32;3.22;;;;;;;36.47;27.58;99225.16;5074222;28;20275;-65
2022/06/05 12:12:18;;;;;;;4.05;3.10;;;;;;;36.27;28.09;99213.41;5062811;28;20222;-65
2022/06/05 12:14:52;;;;;;;14.05;2.97;;;;;;;36.30;27.71;99225.72;5073504;28;20647;-66
2022/06/05 12:17:26;;;;;;;5.75;2.88;;;;;;;36.35;28.07;99211.53;5073925;28;20184;-64
2022/06/05 12:20:00;;;;;;;2.90;2.70;;;;;;;36.43;27.66;99213.25;5074064;28;20191;-64